Time,TemperatureF,DewpointF,PressureIn,WindDirection,WindDirectionDegrees,WindSpeedMPH,WindSpeedGustMPH,Humidity,HourlyPrecipIn,Conditions,Clouds,dailyrainin,SoftwareType,DateUTC
2013-01-17 00:04:00,28.0,27.0,-100.00,North,0,0.0,0.0,96,0.00,,,-99.99,,2013-01-17 05:04:00,
2013-01-17 00:12:00,27.0,26.0,-100.00,North,0,0.0,0.0,96,0.00,,,-99.99,,2013-01-17 05:12:00,
2013-01-17 00:22:00,27.0,26.0,-100.00,North,0,0.0,0.0,96,0.00,,,-99.99,,2013-01-17 05:22:00,
2013-01-17 00:33:00,26.0,26.0,-100.00,North,0,0.0,0.0,96,0.00,,,-99.99,,2013-01-17 05:33:00,
2013-01-17 00:42:00,26.0,25.0,-100.00,North,0,0.0,0.0,96,0.00,,,-99.99,,2013-01-17 05:42:00,
2013-01-17 00:52:00,26.0,25.0,-100.00,North,0,0.0,0.0,96,0.00,,,-99.99,,2013-01-17 05:52:00,
2013-01-17 01:02:00,26.0,25.0,-100.00,North,0,0.0,0.0,96,0.00,,,-99.99,,2013-01-17 06:02:00,
2013-01-17 01:12:00,25.0,24.0,-100.00,North,0,0.0,0.0,96,0.00,,,-99.99,,2013-01-17 06:12:00,
2013-01-17 01:22:00,25.0,24.0,-100.00,North,0,0.0,0.0,96,0.00,,,-99.99,,2013-01-17 06:22:00,
2013-01-17 01:32:00,24.0,24.0,-100.00,North,0,0.0,0.0,96,0.00,,,-99.99,,2013-01-17 06:32:00,
2013-01-17 01:42:00,24.0,23.0,-100.00,North,0,0.0,0.0,96,0.00,,,-99.99,,2013-01-17 06:42:00,
2013-01-17 01:52:00,23.0,22.0,-100.00,North,0,0.0,0.0,96,0.00,,,-99.99,,2013-01-17 06:52:00,
2013-01-17 02:02:00,23.0,22.0,-100.00,North,0,0.0,0.0,96,0.00,,,-99.99,,2013-01-17 07:02:00,
2013-01-17 02:12:00,23.0,22.0,-100.00,North,0,0.0,0.0,96,0.00,,,-99.99,,2013-01-17 07:12:00,
2013-01-17 02:22:00,23.0,22.0,-100.00,North,0,0.0,0.0,95,0.00,,,-99.99,,2013-01-17 07:22:00,
2013-01-17 02:33:00,23.0,22.0,-100.00,North,0,0.0,0.0,95,0.00,,,-99.99,,2013-01-17 07:33:00,
2013-01-17 02:42:00,22.0,21.0,-100.00,North,0,0.0,0.0,95,0.00,,,-99.99,,2013-01-17 07:42:00,
2013-01-17 02:52:00,22.0,21.0,-100.00,North,0,0.0,0.0,94,0.00,,,-99.99,,2013-01-17 07:52:00,
2013-01-17 03:02:00,22.0,21.0,-100.00,North,0,0.0,0.0,94,0.00,,,-99.99,,2013-01-17 08:02:00,
2013-01-17 03:12:00,22.0,20.0,-100.00,North,0,0.0,0.0,94,0.00,,,-99.99,,2013-01-17 08:12:00,
2013-01-17 03:22:00,21.0,20.0,-100.00,North,0,0.0,0.0,94,0.00,,,-99.99,,2013-01-17 08:22:00,
2013-01-17 03:32:00,21.0,20.0,-100.00,North,0,0.0,0.0,94,0.00,,,-99.99,,2013-01-17 08:32:00,
2013-01-17 03:43:00,21.0,20.0,-100.00,North,0,0.0,0.0,94,0.00,,,-99.99,,2013-01-17 08:43:00,
2013-01-17 03:52:00,21.0,20.0,-100.00,North,0,0.0,0.0,94,0.00,,,-99.99,,2013-01-17 08:52:00,
2013-01-17 04:03:00,21.0,20.0,-100.00,North,0,0.0,0.0,94,0.00,,,-99.99,,2013-01-17 09:03:00,
2013-01-17 04:12:00,22.0,20.0,-100.00,North,0,0.0,0.0,94,0.00,,,-99.99,,2013-01-17 09:12:00,
2013-01-17 04:22:00,22.0,20.0,-100.00,North,0,0.0,0.0,94,0.00,,,-99.99,,2013-01-17 09:22:00,
2013-01-17 04:32:00,21.0,19.0,-100.00,North,0,0.0,0.0,94,0.00,,,-99.99,,2013-01-17 09:32:00,
2013-01-17 04:42:00,21.0,19.0,-100.00,North,0,0.0,0.0,94,0.00,,,-99.99,,2013-01-17 09:42:00,
2013-01-17 04:52:00,22.0,20.0,-100.00,North,0,0.0,0.0,94,0.00,,,-99.99,,2013-01-17 09:52:00,
2013-01-17 05:02:00,21.0,20.0,-100.00,North,0,0.0,0.0,94,0.00,,,-99.99,,2013-01-17 10:02:00,
2013-01-17 05:12:00,21.0,20.0,-100.00,North,0,0.0,0.0,94,0.00,,,-99.99,,2013-01-17 10:12:00,
2013-01-17 05:22:00,21.0,19.0,-100.00,North,0,0.0,0.0,94,0.00,,,-99.99,,2013-01-17 10:22:00,
2013-01-17 05:32:00,22.0,20.0,-100.00,North,0,0.0,0.0,94,0.00,,,-99.99,,2013-01-17 10:32:00,
2013-01-17 05:42:00,22.0,21.0,-100.00,North,0,0.0,0.0,94,0.00,,,-99.99,,2013-01-17 10:42:00,
2013-01-17 05:52:00,22.0,21.0,-100.00,North,0,0.0,0.0,94,0.00,,,-99.99,,2013-01-17 10:52:00,
2013-01-17 06:03:00,21.0,20.0,-100.00,North,0,0.0,0.0,94,0.00,,,-99.99,,2013-01-17 11:03:00,
2013-01-17 06:12:00,21.0,20.0,-100.00,North,0,0.0,0.0,94,0.00,,,-99.99,,2013-01-17 11:12:00,
2013-01-17 06:22:00,22.0,20.0,-100.00,North,0,0.0,0.0,94,0.00,,,-99.99,,2013-01-17 11:22:00,
2013-01-17 06:33:00,21.0,20.0,-100.00,North,0,0.0,0.0,94,0.00,,,-99.99,,2013-01-17 11:33:00,
2013-01-17 06:42:00,21.0,20.0,-100.00,North,0,0.0,0.0,94,0.00,,,-99.99,,2013-01-17 11:42:00,
2013-01-17 06:52:00,21.0,20.0,-100.00,North,0,0.0,0.0,94,0.00,,,-99.99,,2013-01-17 11:52:00,
2013-01-17 07:02:00,21.0,19.0,-100.00,North,0,0.0,0.0,94,0.00,,,-99.99,,2013-01-17 12:02:00,
2013-01-17 07:12:00,21.0,19.0,-100.00,North,0,0.0,0.0,94,0.00,,,-99.99,,2013-01-17 12:12:00,
2013-01-17 07:23:00,20.0,19.0,-100.00,North,0,0.0,0.0,93,0.00,,,-99.99,,2013-01-17 12:23:00,
2013-01-17 07:33:00,20.0,18.0,-100.00,North,0,0.0,0.0,93,0.00,,,-99.99,,2013-01-17 12:33:00,
2013-01-17 07:43:00,20.0,19.0,-100.00,North,0,0.0,0.0,93,0.00,,,-99.99,,2013-01-17 12:43:00,
2013-01-17 07:53:00,20.0,19.0,-100.00,North,0,0.0,0.0,93,0.00,,,-99.99,,2013-01-17 12:53:00,
2013-01-17 08:03:00,20.0,19.0,-100.00,North,0,0.0,0.0,93,0.00,,,-99.99,,2013-01-17 13:03:00,
2013-01-17 08:12:00,21.0,19.0,-100.00,North,0,0.0,0.0,94,0.00,,,-99.99,,2013-01-17 13:12:00,
2013-01-17 08:23:00,22.0,20.0,-100.00,North,0,0.0,0.0,94,0.00,,,-99.99,,2013-01-17 13:23:00,
2013-01-17 08:33:00,22.0,21.0,-100.00,North,0,0.0,0.0,94,0.00,,,-99.99,,2013-01-17 13:33:00,
2013-01-17 08:43:00,24.0,22.0,-100.00,North,0,0.0,0.0,95,0.00,,,-99.99,,2013-01-17 13:43:00,
2013-01-17 08:52:00,26.0,25.0,-100.00,North,0,0.0,0.0,96,0.00,,,-99.99,,2013-01-17 13:52:00,
2013-01-17 09:03:00,28.0,27.0,-100.00,North,0,0.0,0.0,96,0.00,,,-99.99,,2013-01-17 14:03:00,
2013-01-17 09:12:00,28.0,27.0,-100.00,North,0,0.0,0.0,96,0.00,,,-99.99,,2013-01-17 14:12:00,
2013-01-17 09:23:00,30.0,29.0,-100.00,North,0,0.0,0.0,96,0.00,,,-99.99,,2013-01-17 14:23:00,
2013-01-17 09:33:00,31.0,30.0,-100.00,North,0,0.0,0.0,96,0.00,,,-99.99,,2013-01-17 14:33:00,
2013-01-17 09:43:00,33.0,32.0,-100.00,North,0,0.0,0.0,96,0.00,,,-99.99,,2013-01-17 14:43:00,
2013-01-17 09:53:00,34.0,33.0,-100.00,North,0,0.0,0.0,95,0.00,,,-99.99,,2013-01-17 14:53:00,
2013-01-17 10:03:00,34.0,33.0,-100.00,North,0,0.0,0.0,94,0.00,,,-99.99,,2013-01-17 15:03:00,
2013-01-17 10:12:00,36.0,33.0,-100.00,North,0,0.0,0.0,91,0.00,,,-99.99,,2013-01-17 15:12:00,
2013-01-17 10:23:00,36.0,34.0,-100.00,North,0,0.0,0.0,90,0.00,,,-99.99,,2013-01-17 15:23:00,
2013-01-17 10:33:00,37.0,33.0,-100.00,North,0,2.0,4.0,87,0.00,,,-99.99,,2013-01-17 15:33:00,
2013-01-17 10:43:00,36.0,32.0,-100.00,North,0,2.0,7.0,85,0.00,,,-99.99,,2013-01-17 15:43:00,
2013-01-17 10:53:00,37.0,33.0,-100.00,SSW,200,2.0,4.0,85,0.00,,,-99.99,,2013-01-17 15:53:00,
2013-01-17 11:02:00,38.0,33.0,-100.00,West,275,1.0,5.0,83,0.00,,,-99.99,,2013-01-17 16:02:00,
2013-01-17 11:12:00,38.0,32.0,-100.00,SSW,205,3.0,7.0,78,0.00,,,-99.99,,2013-01-17 16:12:00,
2013-01-17 11:23:00,39.0,32.0,-100.00,West,265,4.0,7.0,74,0.00,,,-99.99,,2013-01-17 16:23:00,
2013-01-17 11:33:00,39.0,31.0,-100.00,WNW,290,7.0,10.0,73,0.00,,,-99.99,,2013-01-17 16:33:00,
2013-01-17 11:43:00,38.0,31.0,-100.00,WSW,245,4.0,9.0,76,0.00,,,-99.99,,2013-01-17 16:43:00,
2013-01-17 11:53:00,38.0,31.0,-100.00,West,260,4.0,7.0,75,0.00,,,-99.99,,2013-01-17 16:53:00,
2013-01-17 12:03:00,39.0,31.0,-100.00,WNW,295,5.0,12.0,72,0.00,,,-99.99,,2013-01-17 17:03:00,
2013-01-17 12:13:00,39.0,31.0,-100.00,WSW,240,6.0,11.0,70,0.00,,,-99.99,,2013-01-17 17:13:00,
2013-01-17 12:23:00,40.0,30.0,-100.00,West,275,6.0,12.0,68,0.00,,,-99.99,,2013-01-17 17:23:00,
2013-01-17 12:33:00,40.0,30.0,-100.00,West,265,3.0,9.0,67,0.00,,,-99.99,,2013-01-17 17:33:00,
2013-01-17 12:43:00,40.0,30.0,-100.00,West,275,3.0,12.0,67,0.00,,,-99.99,,2013-01-17 17:43:00,
2013-01-17 12:53:00,40.0,30.0,-100.00,West,275,6.0,11.0,65,0.00,,,-99.99,,2013-01-17 17:53:00,
2013-01-17 13:03:00,40.0,30.0,-100.00,WSW,250,4.0,8.0,65,0.00,,,-99.99,,2013-01-17 18:03:00,
2013-01-17 13:12:00,40.0,29.0,-100.00,WNW,285,6.0,11.0,63,0.00,,,-99.99,,2013-01-17 18:12:00,
2013-01-17 13:22:00,40.0,29.0,-100.00,WSW,250,6.0,13.0,63,0.00,,,-99.99,,2013-01-17 18:22:00,
2013-01-17 13:33:00,41.0,29.0,-100.00,WNW,295,4.0,14.0,62,0.00,,,-99.99,,2013-01-17 18:33:00,
2013-01-17 13:43:00,41.0,29.0,-100.00,West,265,4.0,9.0,61,0.00,,,-99.99,,2013-01-17 18:43:00,
2013-01-17 13:53:00,41.0,29.0,-100.00,West,265,2.0,10.0,62,0.00,,,-99.99,,2013-01-17 18:53:00,
2013-01-17 14:03:00,41.0,28.0,-100.00,West,275,9.0,14.0,59,0.00,,,-99.99,,2013-01-17 19:03:00,
2013-01-17 14:12:00,42.0,28.0,-100.00,WNW,295,4.0,8.0,58,0.00,,,-99.99,,2013-01-17 19:12:00,
2013-01-17 14:23:00,40.0,27.0,-100.00,West,280,7.0,11.0,59,0.00,,,-99.99,,2013-01-17 19:23:00,
2013-01-17 14:33:00,40.0,26.0,-100.00,NNW,335,5.0,12.0,59,0.00,,,-99.99,,2013-01-17 19:33:00,
2013-01-17 14:43:00,39.0,27.0,-100.00,NW,305,6.0,12.0,62,0.00,,,-99.99,,2013-01-17 19:43:00,
2013-01-17 14:53:00,38.0,27.0,-100.00,WNW,295,4.0,17.0,64,0.00,,,-99.99,,2013-01-17 19:53:00,
2013-01-17 15:03:00,38.0,26.0,-100.00,NW,305,5.0,12.0,61,0.00,,,-99.99,,2013-01-17 20:03:00,
2013-01-17 15:12:00,37.0,26.0,-100.00,WSW,250,2.0,10.0,62,0.00,,,-99.99,,2013-01-17 20:12:00,
2013-01-17 15:23:00,37.0,25.0,-100.00,WNW,300,4.0,9.0,60,0.00,,,-99.99,,2013-01-17 20:23:00,
2013-01-17 15:33:00,37.0,25.0,-100.00,NW,325,4.0,11.0,60,0.00,,,-99.99,,2013-01-17 20:33:00,
2013-01-17 15:43:00,37.0,26.0,-100.00,North,350,4.0,7.0,63,0.00,,,-99.99,,2013-01-17 20:43:00,
2013-01-17 15:53:00,37.0,28.0,-100.00,NNW,340,3.0,7.0,69,0.00,,,-99.99,,2013-01-17 20:53:00,
2013-01-17 16:03:00,37.0,28.0,-100.00,NNW,335,4.0,7.0,69,0.00,,,-99.99,,2013-01-17 21:03:00,
2013-01-17 16:13:00,37.0,28.0,-100.00,NNW,330,2.0,7.0,71,0.00,,,-99.99,,2013-01-17 21:13:00,
2013-01-17 16:23:00,36.0,27.0,-100.00,North,355,4.0,8.0,69,0.00,,,-99.99,,2013-01-17 21:23:00,
2013-01-17 16:33:00,36.0,24.0,-100.00,NNW,345,5.0,9.0,60,0.00,,,-99.99,,2013-01-17 21:33:00,
2013-01-17 16:43:00,35.0,21.0,-100.00,NW,315,4.0,7.0,55,0.00,,,-99.99,,2013-01-17 21:43:00,
2013-01-17 16:52:00,35.0,20.0,-100.00,NNW,345,4.0,10.0,55,0.00,,,-99.99,,2013-01-17 21:52:00,
2013-01-17 17:03:00,35.0,19.0,-100.00,North,355,6.0,9.0,53,0.00,,,-99.99,,2013-01-17 22:03:00,
2013-01-17 17:12:00,34.0,20.0,-100.00,NNW,340,4.0,7.0,54,0.00,,,-99.99,,2013-01-17 22:12:00,
2013-01-17 17:23:00,34.0,18.0,-100.00,NNW,340,5.0,12.0,51,0.00,,,-99.99,,2013-01-17 22:23:00,
2013-01-17 17:33:00,34.0,18.0,-100.00,NNW,335,5.0,9.0,53,0.00,,,-99.99,,2013-01-17 22:33:00,
2013-01-17 17:43:00,33.0,18.0,-100.00,NNW,330,5.0,9.0,52,0.00,,,-99.99,,2013-01-17 22:43:00,
2013-01-17 17:52:00,33.0,17.0,-100.00,NW,305,4.0,12.0,52,0.00,,,-99.99,,2013-01-17 22:52:00,
2013-01-17 18:03:00,33.0,18.0,-100.00,NNW,345,1.0,9.0,54,0.00,,,-99.99,,2013-01-17 23:03:00,
2013-01-17 18:12:00,33.0,17.0,-100.00,NNW,345,4.0,9.0,51,0.00,,,-99.99,,2013-01-17 23:12:00,
2013-01-17 18:23:00,32.0,17.0,-100.00,NNW,335,3.0,6.0,53,0.00,,,-99.99,,2013-01-17 23:23:00,
2013-01-17 18:33:00,32.0,17.0,-100.00,North,350,4.0,9.0,52,0.00,,,-99.99,,2013-01-17 23:33:00,
2013-01-17 18:43:00,32.0,16.0,-100.00,NNW,340,4.0,8.0,51,0.00,,,-99.99,,2013-01-17 23:43:00,
2013-01-17 18:53:00,31.0,15.0,-100.00,WNW,300,3.0,9.0,49,0.00,,,-99.99,,2013-01-17 23:53:00,
2013-01-17 19:03:00,31.0,14.0,-100.00,WNW,290,1.0,8.0,48,0.00,,,-99.99,,2013-01-18 00:03:00,
2013-01-17 19:12:00,31.0,13.0,-100.00,NNW,330,3.0,9.0,47,0.00,,,-99.99,,2013-01-18 00:12:00,
2013-01-17 19:23:00,31.0,14.0,-100.00,NNW,335,3.0,6.0,49,0.00,,,-99.99,,2013-01-18 00:23:00,
2013-01-17 19:32:00,31.0,14.0,-100.00,North,350,5.0,8.0,49,0.00,,,-99.99,,2013-01-18 00:32:00,
2013-01-17 19:42:00,31.0,15.0,-100.00,NNW,330,2.0,7.0,51,0.00,,,-99.99,,2013-01-18 00:42:00,
2013-01-17 19:52:00,30.0,12.0,-100.00,North,0,4.0,10.0,46,0.00,,,-99.99,,2013-01-18 00:52:00,
2013-01-17 20:03:00,30.0,13.0,-100.00,NNW,335,4.0,9.0,47,0.00,,,-99.99,,2013-01-18 01:03:00,
2013-01-17 20:12:00,30.0,12.0,-100.00,NNW,340,4.0,8.0,46,0.00,,,-99.99,,2013-01-18 01:12:00,
2013-01-17 20:23:00,30.0,12.0,-100.00,WNW,290,2.0,9.0,47,0.00,,,-99.99,,2013-01-18 01:23:00,
2013-01-17 20:33:00,30.0,12.0,-100.00,North,355,4.0,7.0,46,0.00,,,-99.99,,2013-01-18 01:33:00,
2013-01-17 20:43:00,29.0,11.0,-100.00,NNW,330,4.0,12.0,45,0.00,,,-99.99,,2013-01-18 01:43:00,
2013-01-17 20:52:00,29.0,11.0,-100.00,NNW,335,6.0,14.0,45,0.00,,,-99.99,,2013-01-18 01:52:00,
2013-01-17 21:03:00,29.0,11.0,-100.00,NNW,335,6.0,9.0,45,0.00,,,-99.99,,2013-01-18 02:03:00,
2013-01-17 21:12:00,29.0,11.0,-100.00,NNW,330,4.0,9.0,46,0.00,,,-99.99,,2013-01-18 02:12:00,
2013-01-17 21:22:00,29.0,11.0,-100.00,WNW,295,4.0,9.0,45,0.00,,,-99.99,,2013-01-18 02:22:00,
2013-01-17 21:33:00,29.0,10.0,-100.00,West,265,2.0,11.0,45,0.00,,,-99.99,,2013-01-18 02:33:00,
2013-01-17 21:42:00,29.0,9.0,-100.00,WNW,290,7.0,12.0,42,0.00,,,-99.99,,2013-01-18 02:42:00,
2013-01-17 21:52:00,29.0,9.0,-100.00,NW,305,6.0,11.0,42,0.00,,,-99.99,,2013-01-18 02:52:00,
2013-01-17 22:02:00,28.0,9.0,-100.00,NW,310,4.0,13.0,44,0.00,,,-99.99,,2013-01-18 03:02:00,
2013-01-17 22:12:00,28.0,10.0,-100.00,NW,305,3.0,8.0,46,0.00,,,-99.99,,2013-01-18 03:12:00,
2013-01-17 22:23:00,28.0,10.0,-100.00,NW,320,2.0,7.0,45,0.00,,,-99.99,,2013-01-18 03:23:00,
2013-01-17 22:33:00,28.0,9.0,-100.00,WNW,290,5.0,11.0,44,0.00,,,-99.99,,2013-01-18 03:33:00,
2013-01-17 22:42:00,28.0,8.0,-100.00,NW,320,6.0,14.0,42,0.00,,,-99.99,,2013-01-18 03:42:00,
2013-01-17 22:52:00,28.0,8.0,-100.00,West,275,4.0,12.0,41,0.00,,,-99.99,,2013-01-18 03:52:00,
2013-01-17 23:02:00,27.0,7.0,-100.00,West,280,2.0,9.0,41,0.00,,,-99.99,,2013-01-18 04:02:00,
2013-01-17 23:12:00,27.0,6.0,-100.00,WNW,285,6.0,12.0,39,0.00,,,-99.99,,2013-01-18 04:12:00,
2013-01-17 23:22:00,27.0,6.0,-100.00,NNE,30,2.0,10.0,39,0.00,,,-99.99,,2013-01-18 04:22:00,
2013-01-17 23:33:00,27.0,6.0,-100.00,NNW,345,2.0,7.0,40,0.00,,,-99.99,,2013-01-18 04:33:00,
2013-01-17 23:42:00,27.0,4.0,-100.00,NNW,340,6.0,11.0,37,0.00,,,-99.99,,2013-01-18 04:42:00,
2013-01-17 23:52:00,27.0,4.0,-100.00,NNW,330,4.0,10.0,37,0.00,,,-99.99,,2013-01-18 04:52:00,